createdAt,value
2016-12-26T00:00:04.957Z,1014.17
2016-12-26T00:00:26.701Z,1014.06
2016-12-26T00:00:48.460Z,1014.05
2016-12-26T00:01:10.211Z,1014.03
2016-12-26T00:01:31.999Z,1014.09
2016-12-26T00:01:54.842Z,1014.05
2016-12-26T00:02:47.943Z,1014.04
2016-12-26T00:03:14.460Z,1014.09
2016-12-26T00:03:40.971Z,1014.07
2016-12-26T00:04:02.760Z,1014.11
2016-12-26T00:04:24.513Z,1014.05
2016-12-26T00:04:46.279Z,1014.08
2016-12-26T00:05:34.772Z,1014.09
2016-12-26T00:05:56.573Z,1014.14
2016-12-26T00:06:25.687Z,1014.06
2016-12-26T00:06:53.198Z,1014.01
2016-12-26T00:07:15.942Z,1014.12
2016-12-26T00:07:41.652Z,1014.14
2016-12-26T00:08:04.383Z,1014.13
2016-12-26T00:08:26.128Z,1014.29
2016-12-26T00:08:47.901Z,1014.07
2016-12-26T00:09:10.007Z,1014.06
2016-12-26T00:09:31.749Z,1014.10
2016-12-26T00:09:54.501Z,1014.09
2016-12-26T00:10:17.264Z,1014.04
2016-12-26T00:10:41.775Z,1014.10
2016-12-26T00:11:03.385Z,1014.10
2016-12-26T00:11:25.136Z,1014.05
2016-12-26T00:11:46.875Z,1014.07
2016-12-26T00:12:08.624Z,1014.12
2016-12-26T00:12:30.372Z,1014.14
2016-12-26T00:12:52.112Z,1014.07
2016-12-26T00:13:13.918Z,1014.17
2016-12-26T00:13:38.449Z,1014.13
2016-12-26T00:14:00.320Z,1014.06
2016-12-26T00:14:22.097Z,1014.12
2016-12-26T00:14:49.034Z,1014.11
2016-12-26T00:15:15.549Z,1014.07
2016-12-26T00:15:37.503Z,1014.20
2016-12-26T00:15:59.321Z,1014.19
2016-12-26T00:16:25.832Z,1014.18
2016-12-26T00:16:48.738Z,1014.13
2016-12-26T00:17:15.249Z,1014.18
2016-12-26T00:17:36.995Z,1014.09
2016-12-26T00:17:58.744Z,1014.09
2016-12-26T00:18:21.616Z,1014.09
2016-12-26T00:18:49.142Z,1014.13
2016-12-26T00:19:10.893Z,1014.20
2016-12-26T00:19:32.897Z,1014.11
2016-12-26T00:19:54.632Z,1014.09
2016-12-26T00:20:16.381Z,1014.10
2016-12-26T00:20:39.116Z,1014.12
2016-12-26T00:21:00.874Z,1014.14
2016-12-26T00:21:22.618Z,1014.15
2016-12-26T00:21:50.140Z,1014.14
2016-12-26T00:22:47.973Z,1014.13
2016-12-26T00:23:09.731Z,1014.16
2016-12-26T00:23:31.581Z,1014.21
2016-12-26T00:23:53.319Z,1014.15
2016-12-26T00:25:22.633Z,1014.19
2016-12-26T00:26:15.683Z,1014.13
2016-12-26T00:26:37.515Z,1014.21
2016-12-26T00:27:00.760Z,1014.12
2016-12-26T00:27:22.986Z,1014.20
2016-12-26T00:27:44.712Z,1014.09
2016-12-26T00:28:06.452Z,1014.34
2016-12-26T00:28:29.213Z,1014.23
2016-12-26T00:29:18.470Z,1014.16
2016-12-26T00:30:09.640Z,1014.24
2016-12-26T00:30:31.385Z,1014.16
2016-12-26T00:30:54.203Z,1014.25
2016-12-26T00:31:21.881Z,1014.22
2016-12-26T00:31:44.467Z,1014.14
2016-12-26T00:32:06.605Z,1014.25
2016-12-26T00:32:28.782Z,1014.24
2016-12-26T00:32:50.932Z,1014.23
2016-12-26T00:33:13.969Z,1014.21
2016-12-26T00:33:40.736Z,1014.14
2016-12-26T00:34:07.257Z,1014.23
2016-12-26T00:34:28.985Z,1014.15
2016-12-26T00:34:51.742Z,1014.14
2016-12-26T00:35:13.518Z,1014.11
2016-12-26T00:35:35.316Z,1014.16
2016-12-26T00:35:57.214Z,1014.21
2016-12-26T00:36:19.056Z,1014.20
2016-12-26T00:36:46.566Z,1014.18
2016-12-26T00:37:49.640Z,1014.13
2016-12-26T00:38:26.398Z,1014.08
2016-12-26T00:38:49.170Z,1014.17
2016-12-26T00:39:10.922Z,1014.19
2016-12-26T00:39:32.672Z,1014.19
2016-12-26T00:39:54.584Z,1014.10
2016-12-26T00:40:16.585Z,1014.13
2016-12-26T00:41:10.235Z,1014.26
2016-12-26T00:41:32.587Z,1014.22
2016-12-26T00:41:56.336Z,1014.13
2016-12-26T00:42:46.059Z,1014.18
2016-12-26T00:43:08.002Z,1014.21
2016-12-26T00:43:29.995Z,1014.22
2016-12-26T00:43:51.906Z,1014.18
2016-12-26T00:44:13.652Z,1014.20
2016-12-26T00:44:35.395Z,1014.22
2016-12-26T00:44:57.126Z,1014.19
2016-12-26T00:45:19.902Z,1014.26
2016-12-26T00:45:41.651Z,1014.18
2016-12-26T00:46:04.419Z,1014.24
2016-12-26T00:46:30.909Z,1014.22
2016-12-26T00:46:53.667Z,1014.26
2016-12-26T00:47:15.453Z,1014.29
2016-12-26T00:47:37.205Z,1014.33
2016-12-26T00:47:58.945Z,1014.23
2016-12-26T00:48:20.745Z,1014.21
2016-12-26T00:48:43.549Z,1014.33
2016-12-26T00:49:05.285Z,1014.20
2016-12-26T00:49:27.031Z,1014.26
2016-12-26T00:49:49.822Z,1014.30
2016-12-26T00:50:12.562Z,1014.23
2016-12-26T00:50:34.327Z,1014.25
2016-12-26T00:50:56.220Z,1014.29
2016-12-26T00:51:17.961Z,1014.27
2016-12-26T00:51:39.751Z,1014.27
2016-12-26T00:52:01.509Z,1014.21
2016-12-26T00:52:28.155Z,1014.26
2016-12-26T00:52:55.666Z,1014.26
2016-12-26T00:53:17.418Z,1014.30
2016-12-26T00:53:39.189Z,1014.24
2016-12-26T00:54:03.804Z,1014.19
2016-12-26T00:54:26.535Z,1014.15
2016-12-26T00:54:49.300Z,1014.19
2016-12-26T00:55:16.805Z,1014.11
2016-12-26T00:55:39.572Z,1014.16
2016-12-26T00:56:01.330Z,1014.17
2016-12-26T00:56:23.057Z,1014.19
2016-12-26T00:56:44.830Z,1014.15
2016-12-26T00:57:06.598Z,1014.16
2016-12-26T00:57:30.882Z,1014.24
2016-12-26T00:57:57.833Z,1014.19
2016-12-26T00:58:25.527Z,1014.23
2016-12-26T00:58:47.278Z,1014.19
2016-12-26T00:59:13.815Z,1014.32
2016-12-26T00:59:36.566Z,1014.18
2016-12-26T01:00:03.130Z,1014.24
2016-12-26T01:00:34.406Z,1014.20
2016-12-26T01:00:56.265Z,1014.20
2016-12-26T01:01:18.381Z,1014.20
2016-12-26T01:01:40.425Z,1014.24
2016-12-26T01:02:03.181Z,1014.21
2016-12-26T01:02:29.715Z,1014.14
2016-12-26T01:02:51.472Z,1014.25
2016-12-26T01:03:13.212Z,1014.17
2016-12-26T01:03:35.052Z,1014.22
2016-12-26T01:03:56.878Z,1014.22
2016-12-26T01:04:19.136Z,1014.26
2016-12-26T01:05:07.841Z,1014.20
2016-12-26T01:05:29.669Z,1014.13
2016-12-26T01:05:51.412Z,1014.30
2016-12-26T01:06:15.836Z,1014.16
2016-12-26T01:06:37.582Z,1014.16
2016-12-26T01:06:59.328Z,1014.11
2016-12-26T01:07:21.073Z,1014.17
2016-12-26T01:07:42.841Z,1014.18
2016-12-26T01:08:09.345Z,1014.15
2016-12-26T01:08:59.934Z,1014.12
2016-12-26T01:09:23.532Z,1014.09
2016-12-26T01:09:45.420Z,1014.13
2016-12-26T01:10:07.161Z,1014.11
2016-12-26T01:10:29.025Z,1014.13
2016-12-26T01:10:50.782Z,1014.10
2016-12-26T01:11:12.509Z,1014.13
2016-12-26T01:11:34.356Z,1014.09
2016-12-26T01:11:56.098Z,1014.11
2016-12-26T01:12:18.944Z,1014.12
2016-12-26T01:12:41.706Z,1014.11
2016-12-26T01:13:08.242Z,1014.08
2016-12-26T01:13:34.755Z,1014.23
2016-12-26T01:13:56.513Z,1014.09
2016-12-26T01:14:18.248Z,1014.10
2016-12-26T01:14:40.022Z,1014.10
2016-12-26T01:15:01.769Z,1014.17
2016-12-26T01:15:28.271Z,1014.18
2016-12-26T01:16:21.297Z,1014.16
2016-12-26T01:16:43.055Z,1014.15
2016-12-26T01:17:04.799Z,1014.17
2016-12-26T01:17:27.162Z,1014.15
2016-12-26T01:17:49.917Z,1014.15
2016-12-26T01:19:10.460Z,1014.22
2016-12-26T01:19:36.967Z,1014.19
2016-12-26T01:19:58.809Z,1014.22
2016-12-26T01:20:20.556Z,1014.29
2016-12-26T01:20:42.309Z,1014.25
2016-12-26T01:21:31.560Z,1014.25
2016-12-26T01:21:58.072Z,1014.32
2016-12-26T01:22:19.814Z,1014.23
2016-12-26T01:22:41.561Z,1014.28
2016-12-26T01:23:03.393Z,1014.28
2016-12-26T01:23:25.167Z,1014.21
2016-12-26T01:23:51.675Z,1014.22
2016-12-26T01:24:13.674Z,1014.25
2016-12-26T01:25:01.945Z,1014.25
2016-12-26T01:25:23.698Z,1014.28
2016-12-26T01:25:50.195Z,1014.22
2016-12-26T01:26:16.697Z,1014.24
2016-12-26T01:26:38.475Z,1014.22
2016-12-26T01:27:27.135Z,1014.23
2016-12-26T01:27:49.097Z,1014.28
2016-12-26T01:28:10.869Z,1014.20
2016-12-26T01:28:32.627Z,1014.17
2016-12-26T01:28:54.532Z,1014.23
2016-12-26T01:29:16.310Z,1014.22
2016-12-26T01:29:38.052Z,1014.15
2016-12-26T01:30:04.574Z,1014.20
2016-12-26T01:30:31.098Z,1014.28
2016-12-26T01:31:19.370Z,1014.23
2016-12-26T01:31:42.117Z,1014.20
2016-12-26T01:32:03.872Z,1014.28
2016-12-26T01:32:25.616Z,1014.20
2016-12-26T01:32:48.416Z,1014.25
2016-12-26T01:33:10.217Z,1014.18
2016-12-26T01:33:31.980Z,1014.17
2016-12-26T01:33:53.724Z,1014.21
2016-12-26T01:34:20.251Z,1014.25
2016-12-26T01:34:41.995Z,1014.23
2016-12-26T01:35:03.745Z,1014.23
2016-12-26T01:35:26.495Z,1014.23
2016-12-26T01:35:49.239Z,1014.22
2016-12-26T01:36:12.286Z,1014.31
2016-12-26T01:36:39.001Z,1014.23
2016-12-26T01:37:03.641Z,1014.24
2016-12-26T01:37:25.376Z,1014.20
2016-12-26T01:37:48.125Z,1014.26
2016-12-26T01:38:09.975Z,1014.25
2016-12-26T01:38:31.726Z,1014.21
2016-12-26T01:38:54.524Z,1014.17
2016-12-26T01:39:17.289Z,1014.21
2016-12-26T01:39:41.150Z,1014.17
2016-12-26T01:40:07.660Z,1014.16
2016-12-26T01:40:58.897Z,1014.17
2016-12-26T01:41:48.242Z,1014.19
2016-12-26T01:42:09.999Z,1014.20
2016-12-26T01:42:31.802Z,1014.20
2016-12-26T01:42:58.308Z,1014.20
2016-12-26T01:43:20.052Z,1014.10
2016-12-26T01:43:41.810Z,1014.15
2016-12-26T01:44:03.607Z,1014.15
2016-12-26T01:44:25.352Z,1014.13
2016-12-26T01:44:47.117Z,1014.17
2016-12-26T01:45:09.856Z,1014.17
2016-12-26T01:45:31.607Z,1014.15
2016-12-26T01:45:53.357Z,1014.09
2016-12-26T01:46:16.104Z,1014.16
2016-12-26T01:46:37.988Z,1014.14
2016-12-26T01:47:01.162Z,1014.18
2016-12-26T01:47:22.930Z,1014.16
2016-12-26T01:47:44.678Z,1014.12
2016-12-26T01:48:06.428Z,1014.11
2016-12-26T01:48:28.160Z,1014.13
2016-12-26T01:48:50.946Z,1014.11
2016-12-26T01:49:48.756Z,1014.12
2016-12-26T01:50:10.501Z,1014.05
2016-12-26T01:50:32.285Z,1014.04
2016-12-26T01:50:59.789Z,1014.11
2016-12-26T01:51:22.647Z,1014.09
2016-12-26T01:51:44.660Z,1014.02
2016-12-26T01:52:11.506Z,1014.06
2016-12-26T01:52:33.972Z,1014.04
2016-12-26T01:52:55.707Z,1014.04
2016-12-26T01:53:17.864Z,1014.04
2016-12-26T01:53:39.705Z,1014.06
2016-12-26T01:54:01.540Z,1014.06
2016-12-26T01:54:23.413Z,1014.06
2016-12-26T01:54:45.351Z,1014.07
2016-12-26T01:55:11.860Z,1014.11
2016-12-26T01:55:33.603Z,1014.08
2016-12-26T01:55:55.411Z,1014.15
2016-12-26T01:56:17.155Z,1014.13
2016-12-26T01:56:38.901Z,1014.03
2016-12-26T01:57:06.411Z,1014.05
2016-12-26T01:57:28.165Z,1014.07
2016-12-26T01:57:54.687Z,1014.08
2016-12-26T01:59:23.753Z,1014.09
2016-12-26T01:59:50.266Z,1013.98
2016-12-26T02:00:16.773Z,1014.05
2016-12-26T02:00:48.580Z,1014.04
2016-12-26T02:01:11.313Z,1014.09
2016-12-26T02:01:33.053Z,1014.04
2016-12-26T02:01:54.819Z,1014.02
2016-12-26T02:02:17.590Z,1014.07
2016-12-26T02:02:44.121Z,1014.06
2016-12-26T02:03:10.660Z,1014.11
2016-12-26T02:03:32.412Z,1014.01
2016-12-26T02:04:00.168Z,1014.03
2016-12-26T02:04:21.986Z,1014.10
2016-12-26T02:04:48.677Z,1014.02
2016-12-26T02:05:10.600Z,1013.98
2016-12-26T02:05:33.343Z,1013.97
2016-12-26T02:06:00.853Z,1013.95
2016-12-26T02:06:23.613Z,1014.00
2016-12-26T02:06:45.356Z,1013.98
2016-12-26T02:07:12.860Z,1013.97
2016-12-26T02:07:34.591Z,1013.98
2016-12-26T02:08:25.857Z,1014.07
2016-12-26T02:09:28.409Z,1014.02
2016-12-26T02:09:50.173Z,1013.98
2016-12-26T02:10:11.961Z,1013.97
2016-12-26T02:10:33.895Z,1013.99
2016-12-26T02:10:55.688Z,1014.10
2016-12-26T02:11:17.576Z,1014.11
2016-12-26T02:11:42.270Z,1014.09
2016-12-26T02:12:04.019Z,1013.98
2016-12-26T02:12:53.352Z,1014.02
2016-12-26T02:13:15.097Z,1014.02
2016-12-26T02:13:37.958Z,1014.06
2016-12-26T02:13:59.802Z,1014.13
2016-12-26T02:14:21.558Z,1014.01
2016-12-26T02:14:49.070Z,1014.02
2016-12-26T02:15:10.825Z,1013.99
2016-12-26T02:15:32.575Z,1014.00
2016-12-26T02:15:54.308Z,1014.00
2016-12-26T02:16:16.104Z,1014.04
2016-12-26T02:16:37.999Z,1013.98
2016-12-26T02:17:26.507Z,1013.97
2016-12-26T02:17:48.252Z,1013.91
2016-12-26T02:18:09.992Z,1013.91
2016-12-26T02:18:31.748Z,1014.01
2016-12-26T02:18:53.501Z,1013.94
2016-12-26T02:19:15.306Z,1014.00
2016-12-26T02:19:37.062Z,1014.00
2016-12-26T02:19:58.831Z,1013.93
2016-12-26T02:20:21.612Z,1013.96
2016-12-26T02:20:43.410Z,1013.99
2016-12-26T02:21:05.159Z,1013.99
2016-12-26T02:21:26.904Z,1013.95
2016-12-26T02:21:48.656Z,1013.98
2016-12-26T02:22:10.778Z,1013.99
2016-12-26T02:22:33.339Z,1014.04
2016-12-26T02:23:00.512Z,1014.16
2016-12-26T02:23:22.591Z,1014.01
2016-12-26T02:24:15.823Z,1013.98
2016-12-26T02:24:37.577Z,1014.13
2016-12-26T02:25:00.312Z,1014.08
2016-12-26T02:25:22.051Z,1014.01
2016-12-26T02:25:43.864Z,1013.98
2016-12-26T02:26:05.937Z,1014.01
2016-12-26T02:26:27.670Z,1014.02
2016-12-26T02:26:49.417Z,1014.02
2016-12-26T02:27:42.444Z,1014.01
2016-12-26T02:28:04.196Z,1014.01
2016-12-26T02:28:57.208Z,1013.95
2016-12-26T02:29:19.957Z,1013.93
2016-12-26T02:29:41.747Z,1014.00
2016-12-26T02:30:03.579Z,1014.00
2016-12-26T02:30:25.313Z,1013.99
2016-12-26T02:30:47.068Z,1013.98
2016-12-26T02:31:08.809Z,1013.98
2016-12-26T02:31:35.331Z,1013.98
2016-12-26T02:31:57.082Z,1014.00
2016-12-26T02:32:19.066Z,1013.93
2016-12-26T02:32:44.054Z,1013.98
2016-12-26T02:33:07.004Z,1014.07
2016-12-26T02:33:28.735Z,1014.00
2016-12-26T02:33:50.479Z,1013.99
2016-12-26T02:34:12.241Z,1013.99
2016-12-26T02:34:34.001Z,1014.01
2016-12-26T02:34:55.740Z,1014.01
2016-12-26T02:35:17.482Z,1014.05
2016-12-26T02:35:39.548Z,1013.99
2016-12-26T02:36:01.766Z,1013.93
2016-12-26T02:36:24.205Z,1013.99
2016-12-26T02:36:46.161Z,1013.95
2016-12-26T02:37:08.142Z,1013.96
2016-12-26T02:37:29.924Z,1013.93
2016-12-26T02:38:18.169Z,1013.96
2016-12-26T02:38:40.911Z,1013.99
2016-12-26T02:39:02.661Z,1013.98
2016-12-26T02:39:24.405Z,1013.98
2016-12-26T02:39:46.147Z,1013.98
2016-12-26T02:40:07.887Z,1013.92
2016-12-26T02:40:29.633Z,1013.97
2016-12-26T02:40:51.387Z,1013.93
2016-12-26T02:41:13.252Z,1013.94
2016-12-26T02:41:35.001Z,1013.93
2016-12-26T02:41:56.762Z,1013.92
2016-12-26T02:42:18.520Z,1014.01
2016-12-26T02:42:40.270Z,1013.94
2016-12-26T02:43:02.092Z,1013.93
2016-12-26T02:43:23.978Z,1013.94
2016-12-26T02:43:45.784Z,1013.90
2016-12-26T02:44:07.607Z,1013.93
2016-12-26T02:44:29.374Z,1013.98
2016-12-26T02:44:51.132Z,1013.95
2016-12-26T02:45:12.897Z,1013.99
2016-12-26T02:45:34.647Z,1014.01
2016-12-26T02:45:56.424Z,1013.92
2016-12-26T02:46:22.959Z,1013.92
2016-12-26T02:46:45.708Z,1013.88
2016-12-26T02:47:17.019Z,1013.90
2016-12-26T02:47:46.482Z,1013.89
2016-12-26T02:48:08.224Z,1013.89
2016-12-26T02:48:34.732Z,1013.93
2016-12-26T02:48:56.654Z,1013.89
2016-12-26T02:49:18.652Z,1013.87
2016-12-26T02:49:40.646Z,1013.84
2016-12-26T02:50:02.619Z,1013.90
2016-12-26T02:50:24.693Z,1013.80
2016-12-26T02:50:57.115Z,1013.90
2016-12-26T02:51:18.855Z,1013.82
2016-12-26T02:51:40.619Z,1013.83
2016-12-26T02:52:03.376Z,1013.85
2016-12-26T02:52:29.871Z,1013.87
2016-12-26T02:52:51.621Z,1013.81
2016-12-26T02:53:14.369Z,1013.78
2016-12-26T02:53:36.195Z,1013.84
2016-12-26T02:53:58.064Z,1013.79
2016-12-26T02:54:20.169Z,1013.84
2016-12-26T02:54:42.097Z,1013.93
2016-12-26T02:55:03.856Z,1013.83
2016-12-26T02:55:25.586Z,1013.78
2016-12-26T02:55:47.355Z,1013.73
2016-12-26T02:56:09.127Z,1013.75
2016-12-26T02:56:30.872Z,1013.82
2016-12-26T02:56:53.641Z,1013.83
2016-12-26T02:57:15.412Z,1013.86
2016-12-26T02:57:37.195Z,1013.75
2016-12-26T02:57:58.934Z,1013.79
2016-12-26T02:58:20.716Z,1013.76
2016-12-26T02:58:42.481Z,1013.78
2016-12-26T02:59:04.237Z,1013.81
2016-12-26T02:59:53.548Z,1013.75
2016-12-26T03:00:15.287Z,1013.72
2016-12-26T03:00:41.809Z,1013.72
2016-12-26T03:01:08.327Z,1013.70
2016-12-26T03:01:34.837Z,1013.72
2016-12-26T03:02:02.342Z,1013.77
2016-12-26T03:02:25.093Z,1013.78
2016-12-26T03:02:47.859Z,1013.77
2016-12-26T03:03:20.128Z,1013.81
2016-12-26T03:03:41.878Z,1013.74
2016-12-26T03:04:04.630Z,1013.80
2016-12-26T03:04:31.222Z,1013.81
2016-12-26T03:04:52.985Z,1013.79
2016-12-26T03:05:14.801Z,1013.79
2016-12-26T03:05:37.079Z,1013.83
2016-12-26T03:05:59.073Z,1013.77
2016-12-26T03:06:26.041Z,1013.83
2016-12-26T03:06:52.547Z,1013.79
2016-12-26T03:07:14.299Z,1013.77
2016-12-26T03:07:36.054Z,1013.87
2016-12-26T03:07:57.813Z,1013.82
2016-12-26T03:08:19.654Z,1013.84
2016-12-26T03:08:46.436Z,1013.76
2016-12-26T03:09:13.014Z,1013.83
2016-12-26T03:10:11.343Z,1013.82
2016-12-26T03:10:59.658Z,1013.86
2016-12-26T03:11:21.396Z,1013.84
2016-12-26T03:11:43.135Z,1013.78
2016-12-26T03:12:09.664Z,1013.82
2016-12-26T03:12:36.186Z,1013.92
2016-12-26T03:12:57.944Z,1013.83
2016-12-26T03:13:24.709Z,1013.89
2016-12-26T03:13:49.433Z,1013.81
2016-12-26T03:14:14.760Z,1013.80
2016-12-26T03:14:36.532Z,1013.80
2016-12-26T03:15:03.038Z,1013.81
2016-12-26T03:15:24.776Z,1013.77
2016-12-26T03:15:47.595Z,1013.77
2016-12-26T03:16:09.339Z,1013.69
2016-12-26T03:16:31.111Z,1013.78
2016-12-26T03:16:52.959Z,1013.79
2016-12-26T03:17:43.206Z,1013.74
2016-12-26T03:18:04.973Z,1013.78
2016-12-26T03:18:26.733Z,1013.75
2016-12-26T03:18:48.530Z,1013.77
2016-12-26T03:19:10.248Z,1013.73
2016-12-26T03:19:36.770Z,1013.76
2016-12-26T03:20:25.030Z,1013.71
2016-12-26T03:20:49.479Z,1013.71
2016-12-26T03:21:11.257Z,1013.62
2016-12-26T03:21:33.329Z,1013.64
2016-12-26T03:21:55.203Z,1013.66
2016-12-26T03:22:17.102Z,1013.63
2016-12-26T03:22:39.004Z,1013.63
2016-12-26T03:23:05.511Z,1013.71
2016-12-26T03:23:27.321Z,1013.63
2016-12-26T03:23:49.202Z,1013.68
2016-12-26T03:24:10.972Z,1013.67
2016-12-26T03:24:32.725Z,1013.72
2016-12-26T03:24:54.468Z,1013.59
2016-12-26T03:25:16.203Z,1013.67
2016-12-26T03:25:37.953Z,1013.71
2016-12-26T03:25:59.698Z,1013.71
2016-12-26T03:26:21.454Z,1013.62
2016-12-26T03:26:43.211Z,1013.62
2016-12-26T03:27:09.841Z,1013.66
2016-12-26T03:27:31.599Z,1013.66
2016-12-26T03:27:54.350Z,1013.64
2016-12-26T03:28:16.089Z,1013.65
2016-12-26T03:28:42.608Z,1013.77
2016-12-26T03:29:04.351Z,1013.69
2016-12-26T03:29:26.099Z,1013.65
2016-12-26T03:29:47.838Z,1013.78
2016-12-26T03:30:14.388Z,1013.63
2016-12-26T03:30:36.137Z,1013.66
2016-12-26T03:30:57.882Z,1013.67
2016-12-26T03:31:19.635Z,1013.63
2016-12-26T03:31:41.521Z,1013.68
2016-12-26T03:32:03.157Z,1013.66
2016-12-26T03:32:24.908Z,1013.66
2016-12-26T03:32:46.657Z,1013.69
2016-12-26T03:33:08.397Z,1013.70
2016-12-26T03:33:30.153Z,1013.68
2016-12-26T03:33:51.892Z,1013.64
2016-12-26T03:34:13.653Z,1013.71
2016-12-26T03:34:35.400Z,1013.71
2016-12-26T03:34:57.149Z,1013.76
2016-12-26T03:35:18.921Z,1013.73
2016-12-26T03:35:45.435Z,1013.73
2016-12-26T03:36:07.402Z,1013.69
2016-12-26T03:36:33.904Z,1013.59
2016-12-26T03:36:55.664Z,1013.71
2016-12-26T03:37:18.413Z,1013.69
2016-12-26T03:37:44.914Z,1013.67
2016-12-26T03:38:07.671Z,1013.64
2016-12-26T03:38:29.415Z,1013.69
2016-12-26T03:38:51.358Z,1013.70
2016-12-26T03:39:13.118Z,1013.70
2016-12-26T03:39:34.855Z,1013.69
2016-12-26T03:40:23.135Z,1013.61
2016-12-26T03:40:44.891Z,1013.61
2016-12-26T03:41:06.628Z,1013.77
2016-12-26T03:41:28.368Z,1013.69
2016-12-26T03:41:50.146Z,1013.69
2016-12-26T03:42:11.894Z,1013.56
2016-12-26T03:42:34.721Z,1013.65
2016-12-26T03:43:10.757Z,1013.59
2016-12-26T03:43:59.264Z,1013.61
2016-12-26T03:44:21.090Z,1013.60
2016-12-26T03:44:48.609Z,1013.67
2016-12-26T03:45:11.413Z,1013.69
2016-12-26T03:45:33.309Z,1013.72
2016-12-26T03:45:55.172Z,1013.63
2016-12-26T03:46:16.985Z,1013.67
2016-12-26T03:46:38.737Z,1013.63
2016-12-26T03:47:00.489Z,1013.58
2016-12-26T03:47:22.237Z,1013.74
2016-12-26T03:47:43.963Z,1013.59
2016-12-26T03:48:05.715Z,1013.61
2016-12-26T03:48:27.497Z,1013.52
2016-12-26T03:49:21.507Z,1013.47
2016-12-26T03:49:43.257Z,1013.60
2016-12-26T03:50:05.026Z,1013.55
2016-12-26T03:50:26.795Z,1013.57
2016-12-26T03:50:48.559Z,1013.62
2016-12-26T03:51:16.062Z,1013.65
2016-12-26T03:51:37.805Z,1013.52
2016-12-26T03:52:01.958Z,1013.58
2016-12-26T03:52:24.708Z,1013.55
2016-12-26T03:52:47.446Z,1013.57
2016-12-26T03:53:09.179Z,1013.51
2016-12-26T03:53:30.916Z,1013.53
2016-12-26T03:53:52.708Z,1013.54
2016-12-26T03:54:41.980Z,1013.63
2016-12-26T03:55:04.823Z,1013.59
2016-12-26T03:55:27.077Z,1013.64
2016-12-26T03:55:49.083Z,1013.64
2016-12-26T03:56:11.245Z,1013.56
2016-12-26T03:56:33.045Z,1013.51
2016-12-26T03:56:56.786Z,1013.56
2016-12-26T03:57:19.540Z,1013.51
2016-12-26T03:57:41.356Z,1013.49
2016-12-26T03:58:03.101Z,1013.53
2016-12-26T03:58:24.846Z,1013.49
2016-12-26T03:58:51.356Z,1013.56
2016-12-26T03:59:13.103Z,1013.62
2016-12-26T04:00:02.386Z,1013.54
2016-12-26T04:00:28.897Z,1013.54
2016-12-26T04:01:27.221Z,1013.49
2016-12-26T04:01:48.967Z,1013.50
2016-12-26T04:02:10.718Z,1013.51
2016-12-26T04:02:33.595Z,1013.50
2016-12-26T04:02:55.350Z,1013.52
2016-12-26T04:03:17.083Z,1013.50
2016-12-26T04:03:38.837Z,1013.59
2016-12-26T04:04:00.572Z,1013.51
2016-12-26T04:04:22.515Z,1013.50
2016-12-26T04:04:44.350Z,1013.47
2016-12-26T04:05:06.146Z,1013.42
2016-12-26T04:05:27.884Z,1013.46
2016-12-26T04:05:52.547Z,1013.41
2016-12-26T04:06:14.279Z,1013.41
2016-12-26T04:06:36.029Z,1013.44
2016-12-26T04:07:02.540Z,1013.36
2016-12-26T04:07:24.333Z,1013.30
2016-12-26T04:07:46.084Z,1013.34
2016-12-26T04:08:07.826Z,1013.36
2016-12-26T04:08:29.568Z,1013.34
2016-12-26T04:08:51.369Z,1013.34
2016-12-26T04:09:13.140Z,1013.37
2016-12-26T04:09:34.890Z,1013.42
2016-12-26T04:10:30.442Z,1013.40
2016-12-26T04:10:52.287Z,1013.45
2016-12-26T04:11:14.087Z,1013.42
2016-12-26T04:11:35.963Z,1013.30
2016-12-26T04:11:57.721Z,1013.37
2016-12-26T04:12:20.465Z,1013.37
2016-12-26T04:12:42.200Z,1013.28
2016-12-26T04:13:03.946Z,1013.36
2016-12-26T04:13:25.702Z,1013.39
2016-12-26T04:13:47.449Z,1013.29
2016-12-26T04:14:09.198Z,1013.33
2016-12-26T04:14:30.986Z,1013.33
2016-12-26T04:14:52.705Z,1013.35
2016-12-26T04:15:14.446Z,1013.32
2016-12-26T04:15:36.188Z,1013.32
2016-12-26T04:15:58.011Z,1013.32
2016-12-26T04:16:19.857Z,1013.37
2016-12-26T04:16:41.913Z,1013.36
2016-12-26T04:17:03.655Z,1013.31
2016-12-26T04:17:25.508Z,1013.32
2016-12-26T04:17:47.261Z,1013.29
2016-12-26T04:18:09.009Z,1013.24
2016-12-26T04:18:30.746Z,1013.22
2016-12-26T04:18:54.490Z,1013.37
2016-12-26T04:19:16.223Z,1013.27
2016-12-26T04:19:42.725Z,1013.31
2016-12-26T04:20:04.516Z,1013.26
2016-12-26T04:20:31.472Z,1013.28
2016-12-26T04:20:57.979Z,1013.34
2016-12-26T04:21:19.729Z,1013.28
2016-12-26T04:21:41.525Z,1013.21
2016-12-26T04:22:03.263Z,1013.36
2016-12-26T04:22:25.002Z,1013.29
2016-12-26T04:22:46.767Z,1013.21
2016-12-26T04:23:08.526Z,1013.26
2016-12-26T04:23:30.439Z,1013.28
2016-12-26T04:23:52.180Z,1013.20
2016-12-26T04:24:21.586Z,1013.34
2016-12-26T04:24:43.400Z,1013.22
2016-12-26T04:25:05.127Z,1013.21
2016-12-26T04:25:27.866Z,1013.19
2016-12-26T04:25:49.671Z,1013.26
2016-12-26T04:26:11.427Z,1013.29
2016-12-26T04:26:33.211Z,1013.10
2016-12-26T04:26:54.949Z,1013.17
2016-12-26T04:27:16.705Z,1013.10
2016-12-26T04:27:38.504Z,1013.09
2016-12-26T04:28:00.392Z,1013.08
2016-12-26T04:28:22.194Z,1013.13
2016-12-26T04:28:43.938Z,1013.09
2016-12-26T04:29:05.685Z,1013.06
2016-12-26T04:29:27.428Z,1013.00
2016-12-26T04:29:49.156Z,1013.09
2016-12-26T04:30:10.900Z,1012.98
2016-12-26T04:30:32.646Z,1012.95
2016-12-26T04:30:54.414Z,1012.93
2016-12-26T04:31:16.324Z,1012.98
2016-12-26T04:31:38.083Z,1012.96
2016-12-26T04:32:04.602Z,1013.00
2016-12-26T04:32:31.109Z,1012.95
2016-12-26T04:32:58.611Z,1013.11
2016-12-26T04:33:20.387Z,1012.97
2016-12-26T04:33:46.955Z,1012.83
2016-12-26T04:34:51.060Z,1012.93
2016-12-26T04:35:12.791Z,1012.88
2016-12-26T04:35:39.335Z,1012.92
2016-12-26T04:36:02.080Z,1012.92
2016-12-26T04:36:29.400Z,1012.85
2016-12-26T04:36:51.197Z,1012.91
2016-12-26T04:37:12.948Z,1012.82
2016-12-26T04:37:34.811Z,1012.88
2016-12-26T04:37:56.702Z,1012.94
2016-12-26T04:38:18.450Z,1012.83
2016-12-26T04:38:40.188Z,1013.02
2016-12-26T04:39:01.926Z,1012.89
2016-12-26T04:39:23.676Z,1012.84
2016-12-26T04:39:45.423Z,1012.97
2016-12-26T04:40:16.709Z,1012.89
2016-12-26T04:40:41.015Z,1012.95
2016-12-26T04:41:02.873Z,1012.97
2016-12-26T04:41:27.150Z,1012.97
2016-12-26T04:41:49.114Z,1012.84
2016-12-26T04:42:11.036Z,1012.91
2016-12-26T04:42:32.779Z,1012.97
2016-12-26T04:42:56.517Z,1012.94
2016-12-26T04:43:23.025Z,1013.07
2016-12-26T04:43:50.532Z,1012.99
2016-12-26T04:44:12.277Z,1012.97
2016-12-26T04:45:00.519Z,1012.97
2016-12-26T04:45:22.276Z,1013.01
2016-12-26T04:45:44.100Z,1012.96
2016-12-26T04:46:05.854Z,1012.96
2016-12-26T04:46:28.604Z,1012.95
2016-12-26T04:46:50.457Z,1012.99
2016-12-26T04:47:12.461Z,1012.97
2016-12-26T04:47:34.295Z,1013.00
2016-12-26T04:47:56.026Z,1013.03
2016-12-26T04:48:17.808Z,1013.04
2016-12-26T04:48:39.600Z,1013.03
2016-12-26T04:49:01.344Z,1013.04
2016-12-26T04:49:23.154Z,1013.05
2016-12-26T04:49:44.877Z,1013.03
2016-12-26T04:50:06.618Z,1013.01
2016-12-26T04:50:28.372Z,1013.07
2016-12-26T04:50:51.128Z,1013.10
2016-12-26T04:51:13.864Z,1013.09
2016-12-26T04:52:11.662Z,1013.01
2016-12-26T04:52:34.396Z,1013.03
2016-12-26T04:52:56.161Z,1013.07
2016-12-26T04:53:22.667Z,1013.02
2016-12-26T04:53:44.525Z,1012.98
2016-12-26T04:54:11.045Z,1013.07
2016-12-26T04:54:33.826Z,1013.02
2016-12-26T04:54:56.562Z,1013.06
2016-12-26T04:55:24.059Z,1013.04
2016-12-26T04:55:45.806Z,1013.07
2016-12-26T04:56:17.073Z,1013.09
2016-12-26T04:56:38.813Z,1013.10
2016-12-26T04:57:01.577Z,1013.08
2016-12-26T04:57:23.335Z,1013.06
2016-12-26T04:57:49.886Z,1013.05
2016-12-26T04:58:11.636Z,1012.95
2016-12-26T04:58:33.517Z,1012.98
2016-12-26T04:58:55.282Z,1013.05
2016-12-26T04:59:17.037Z,1013.00
2016-12-26T04:59:38.781Z,1012.98
2016-12-26T05:00:00.526Z,1013.03
2016-12-26T05:00:22.266Z,1013.15